Time;durP1;ratioP1;P1;durP2;ratioP2;P2;SDS_P1;SDS_P2;PMS_P1;PMS_P2;Temp;Humidity;BMP_temperature;BMP_pressure;BME280_temperature;BME280_humidity;BME280_pressure;Samples;Min_cycle;Max_cycle;Signal;HPM_P1;HPM_P2
2022/07/05 13:58:41;;;;;;;2.83;1.67;;;42.10;24.20;;;;;;4937141;29;20457;-78
2022/07/05 14:01:07;;;;;;;1.93;1.20;;;41.60;24.10;;;;;;4937493;29;20469;-79
2022/07/05 14:03:34;;;;;;;4.13;2.07;;;40.40;25.10;;;;;;4937790;29;20985;-79
2022/07/05 14:06:01;;;;;;;2.63;1.70;;;39.70;26.50;;;;;;4938936;29;20488;-78
2022/07/05 14:08:28;;;;;;;2.50;1.63;;;38.80;27.50;;;;;;4937427;29;20457;-78
2022/07/05 14:10:57;;;;;;;3.53;2.23;;;39.90;25.80;;;;;;4937786;29;20517;-79
2022/07/05 14:13:25;;;;;;;3.27;2.00;;;39.40;26.30;;;;;;4937676;29;20493;-78
2022/07/05 14:16:07;;;;;;;3.10;1.63;;;37.70;26.50;;;;;;4937166;29;20454;-78
2022/07/05 14:18:34;;;;;;;3.60;1.60;;;37.10;27.70;;;;;;4937401;29;20535;-78
2022/07/05 14:21:01;;;;;;;2.00;1.50;;;36.80;28.70;;;;;;4938816;29;20457;-79
2022/07/05 14:23:28;;;;;;;2.10;1.53;;;37.80;27.90;;;;;;4937471;29;20441;-78
2022/07/05 14:25:55;;;;;;;2.90;2.13;;;38.10;27.30;;;;;;4937419;29;20984;-79
2022/07/05 14:28:22;;;;;;;2.87;1.70;;;37.50;27.40;;;;;;4938127;29;20445;-78
2022/07/05 14:30:48;;;;;;;3.00;1.73;;;37.00;27.80;;;;;;4939444;29;20449;-79
2022/07/05 14:33:17;;;;;;;3.20;1.60;;;36.60;28.50;;;;;;4944770;29;20455;-79
2022/07/05 14:35:44;;;;;;;4.53;2.10;;;35.60;29.00;;;;;;4939103;29;20979;-82
2022/07/05 14:38:11;;;;;;;2.03;1.10;;;34.50;30.40;;;;;;4939191;29;20451;-79
2022/07/05 14:40:38;;;;;;;2.77;2.50;;;33.60;31.30;;;;;;4937043;29;20447;-80
2022/07/05 14:43:04;;;;;;;4.47;1.90;;;33.20;32.00;;;;;;4937666;29;21049;-79
2022/07/05 14:45:31;;;;;;;3.10;1.47;;;32.80;32.50;;;;;;4938978;29;20470;-78
2022/07/05 14:47:58;;;;;;;5.83;1.77;;;32.50;32.70;;;;;;4938492;29;20506;-79
2022/07/05 14:50:26;;;;;;;2.30;1.67;;;32.20;33.70;;;;;;4938632;29;20447;-79
2022/07/05 14:52:53;;;;;;;4.67;1.80;;;31.70;34.20;;;;;;4948177;29;20447;-78
2022/07/05 14:55:19;;;;;;;3.33;2.10;;;31.50;34.50;;;;;;4956044;29;20512;-80
2022/07/05 14:57:46;;;;;;;3.37;1.90;;;31.40;34.60;;;;;;4947223;28;20459;-78
2022/07/05 15:00:16;;;;;;;4.73;1.50;;;31.40;34.90;;;;;;4941870;29;20875;-78
2022/07/05 15:02:43;;;;;;;1.97;1.40;;;31.20;35.00;;;;;;4940050;29;21001;-79
2022/07/05 15:05:11;;;;;;;1.80;1.60;;;31.00;35.10;;;;;;4942000;29;20467;-79
2022/07/05 15:07:40;;;;;;;2.50;1.40;;;31.00;35.30;;;;;;4940696;29;20454;-79
2022/07/05 15:10:08;;;;;;;3.73;1.50;;;30.90;35.30;;;;;;4937055;29;20488;-79
2022/07/05 15:12:35;;;;;;;2.77;1.80;;;30.60;35.50;;;;;;4938017;29;20452;-79
2022/07/05 15:15:02;;;;;;;3.87;2.30;;;30.50;35.80;;;;;;4937130;29;20466;-78
2022/07/05 15:17:28;;;;;;;1.70;1.57;;;30.50;35.80;;;;;;4936581;29;20485;-78
2022/07/05 15:19:55;;;;;;;4.73;1.80;;;30.60;36.00;;;;;;4935913;29;20449;-79
2022/07/05 15:22:23;;;;;;;2.20;1.80;;;30.70;35.60;;;;;;4937041;29;20544;-79
2022/07/05 15:24:51;;;;;;;4.33;2.33;;;30.70;35.70;;;;;;4936079;29;20454;-79
2022/07/05 15:27:17;;;;;;;3.80;1.43;;;30.60;36.30;;;;;;4935900;29;20458;-78
2022/07/05 15:29:44;;;;;;;2.27;1.50;;;30.50;36.10;;;;;;4937467;29;20461;-79
2022/07/05 15:32:11;;;;;;;3.20;2.07;;;30.40;36.30;;;;;;4936924;29;20487;-79
2022/07/05 15:34:37;;;;;;;5.03;1.80;;;30.20;36.80;;;;;;4936049;29;20453;-78
2022/07/05 15:37:04;;;;;;;2.33;1.40;;;30.00;37.60;;;;;;4935821;29;20454;-79
2022/07/05 15:39:32;;;;;;;2.30;1.47;;;30.00;36.60;;;;;;4937498;29;20483;-79
2022/07/05 15:42:01;;;;;;;4.17;1.50;;;30.00;36.70;;;;;;4938387;29;20495;-79
2022/07/05 15:44:28;;;;;;;3.70;2.10;;;29.80;37.10;;;;;;4937012;29;20448;-79
2022/07/05 15:47:02;;;;;;;2.23;1.70;;;29.80;37.00;;;;;;4937723;29;20486;-79
2022/07/05 15:49:30;;;;;;;10.03;2.53;;;29.80;37.20;;;;;;4937664;28;20466;-79
2022/07/05 15:51:57;;;;;;;3.20;1.70;;;29.90;37.40;;;;;;4936286;29;20450;-79
2022/07/05 15:54:23;;;;;;;3.30;1.60;;;29.90;36.70;;;;;;4937645;29;20450;-78
2022/07/05 15:56:50;;;;;;;4.03;1.70;;;29.90;36.80;;;;;;4936416;29;20472;-79
2022/07/05 15:59:18;;;;;;;3.23;1.77;;;29.80;37.10;;;;;;4937313;29;20495;-79
2022/07/05 16:01:45;;;;;;;2.07;1.67;;;29.80;37.30;;;;;;4938096;29;20452;-79
2022/07/05 16:04:11;;;;;;;3.10;1.50;;;29.80;37.00;;;;;;4936587;29;20440;-78
2022/07/05 16:06:38;;;;;;;3.60;1.60;;;29.60;37.00;;;;;;4937388;29;20479;-80
2022/07/05 16:09:05;;;;;;;2.77;1.50;;;29.50;37.50;;;;;;4937492;29;20456;-79
2022/07/05 16:11:32;;;;;;;2.80;1.77;;;29.50;37.90;;;;;;4937934;29;21058;-79
2022/07/05 16:13:59;;;;;;;6.00;1.77;;;29.50;37.60;;;;;;4938160;29;20454;-79
2022/07/05 16:16:27;;;;;;;2.73;1.93;;;29.50;37.80;;;;;;4941737;29;20476;-79
2022/07/05 16:18:53;;;;;;;3.00;1.80;;;29.50;37.60;;;;;;4941997;29;20452;-79
2022/07/05 16:21:20;;;;;;;2.13;1.53;;;29.30;37.90;;;;;;4940255;29;20469;-79
2022/07/05 16:23:50;;;;;;;3.80;1.93;;;29.20;37.90;;;;;;4941253;29;20494;-79
2022/07/05 16:26:17;;;;;;;2.90;1.57;;;29.20;38.80;;;;;;4941777;29;20474;-79
2022/07/05 16:28:44;;;;;;;2.60;1.70;;;29.20;38.40;;;;;;4940913;29;20459;-79
2022/07/05 16:31:13;;;;;;;3.50;1.80;;;29.20;38.50;;;;;;4940929;29;20937;-79
2022/07/05 16:33:43;;;;;;;5.70;2.33;;;29.30;38.40;;;;;;4941027;29;20515;-79
2022/07/05 16:36:11;;;;;;;3.57;1.90;;;29.30;39.10;;;;;;4941992;29;20490;-79
2022/07/05 16:38:39;;;;;;;2.50;1.27;;;29.30;38.60;;;;;;4946527;29;20446;-79
2022/07/05 16:41:07;;;;;;;3.20;2.03;;;29.10;37.90;;;;;;4940707;29;20459;-79
2022/07/05 16:43:36;;;;;;;2.30;1.60;;;29.00;38.20;;;;;;4942740;29;20534;-79
2022/07/05 16:46:05;;;;;;;5.57;1.73;;;28.90;38.40;;;;;;4940975;29;20535;-79
2022/07/05 16:48:32;;;;;;;4.43;2.17;;;28.70;38.50;;;;;;4941351;29;20457;-79
2022/07/05 16:51:02;;;;;;;3.27;1.83;;;28.70;39.30;;;;;;4949206;29;20453;-79
2022/07/05 16:53:28;;;;;;;2.10;1.53;;;28.60;38.40;;;;;;4950084;29;20439;-79
2022/07/05 16:55:55;;;;;;;4.37;1.53;;;28.60;38.30;;;;;;4946551;29;20466;-79
2022/07/05 16:58:22;;;;;;;4.90;2.07;;;28.60;38.60;;;;;;4941639;29;20480;-79
2022/07/05 17:00:49;;;;;;;2.37;1.60;;;28.50;38.50;;;;;;4941714;29;20454;-79
2022/07/05 17:03:15;;;;;;;5.70;2.00;;;28.50;38.40;;;;;;4940602;29;20482;-79
2022/07/05 17:05:42;;;;;;;4.80;1.77;;;28.40;39.10;;;;;;4940731;29;20474;-79
2022/07/05 17:08:10;;;;;;;7.43;2.13;;;28.40;38.80;;;;;;4941883;29;20454;-79
2022/07/05 17:10:38;;;;;;;3.37;1.63;;;28.30;39.40;;;;;;4945046;29;20485;-79
2022/07/05 17:13:05;;;;;;;2.43;2.23;;;28.30;39.50;;;;;;4942721;29;20455;-79
2022/07/05 17:15:32;;;;;;;2.73;2.03;;;28.30;39.30;;;;;;4940108;29;20849;-79
2022/07/05 17:17:58;;;;;;;3.00;2.20;;;28.20;39.40;;;;;;4941293;29;20815;-80
2022/07/05 17:20:25;;;;;;;3.23;1.90;;;28.20;39.20;;;;;;4940828;29;20465;-80
2022/07/05 17:22:53;;;;;;;5.00;4.40;;;28.20;39.00;;;;;;4941230;29;20489;-79
2022/07/05 17:25:21;;;;;;;3.73;1.83;;;28.10;39.30;;;;;;4941815;29;20496;-79
2022/07/05 17:27:48;;;;;;;3.50;2.07;;;28.10;39.60;;;;;;4946434;29;20468;-79
2022/07/05 17:30:15;;;;;;;4.30;1.80;;;28.00;39.50;;;;;;4946110;29;20465;-79
2022/07/05 17:32:41;;;;;;;2.10;1.73;;;27.90;39.60;;;;;;4945616;29;20450;-79
2022/07/05 17:35:09;;;;;;;2.60;2.07;;;27.90;39.80;;;;;;4945339;29;20475;-79
2022/07/05 17:37:35;;;;;;;2.50;1.90;;;27.80;39.90;;;;;;4940506;29;20457;-78
2022/07/05 17:40:02;;;;;;;2.20;1.73;;;27.80;40.10;;;;;;4939697;29;20454;-78
2022/07/05 17:42:30;;;;;;;2.20;1.90;;;27.70;40.00;;;;;;4940234;29;20488;-79
2022/07/05 17:44:57;;;;;;;3.30;1.73;;;27.60;40.20;;;;;;4942326;29;22210;-79
2022/07/05 17:47:24;;;;;;;2.20;1.87;;;27.70;40.70;;;;;;4942358;29;20453;-79
2022/07/05 17:49:50;;;;;;;1.90;1.70;;;27.60;40.70;;;;;;4939657;29;20459;-79
2022/07/05 17:52:18;;;;;;;2.37;1.73;;;27.50;40.80;;;;;;4941682;29;20481;-80
2022/07/05 17:54:45;;;;;;;2.73;2.23;;;27.50;40.70;;;;;;4939759;28;20545;-79
2022/07/05 17:57:12;;;;;;;2.63;2.43;;;27.40;40.80;;;;;;4939214;29;20446;-79
2022/07/05 17:59:40;;;;;;;2.30;2.10;;;27.40;40.90;;;;;;4942521;29;20450;-79
2022/07/05 18:02:08;;;;;;;2.60;1.70;;;27.40;41.50;;;;;;4943213;29;20454;-79
2022/07/05 18:04:35;;;;;;;2.30;1.67;;;27.30;41.40;;;;;;4940247;29;20454;-79
2022/07/05 18:07:01;;;;;;;4.37;2.30;;;27.30;41.30;;;;;;4938931;29;20465;-79
2022/07/05 18:09:28;;;;;;;3.47;1.70;;;27.20;41.70;;;;;;4939590;29;20837;-79
2022/07/05 18:11:55;;;;;;;3.63;1.97;;;27.20;41.90;;;;;;4939938;29;20456;-79
2022/07/05 18:14:21;;;;;;;4.33;2.10;;;27.20;41.80;;;;;;4940286;29;20456;-79
2022/07/05 18:16:50;;;;;;;2.23;1.87;;;27.10;42.20;;;;;;4939540;29;20488;-79
2022/07/05 18:19:16;;;;;;;2.17;1.60;;;27.10;41.70;;;;;;4939246;28;20465;-79
2022/07/05 18:21:43;;;;;;;2.70;1.90;;;27.10;42.10;;;;;;4938840;29;20964;-79
2022/07/05 18:24:10;;;;;;;2.57;1.90;;;27.00;41.90;;;;;;4938474;29;20499;-79
2022/07/05 18:26:36;;;;;;;3.17;1.90;;;26.90;41.70;;;;;;4938805;29;20478;-79
2022/07/05 18:29:03;;;;;;;2.40;1.40;;;26.80;42.00;;;;;;4939597;29;20560;-79
2022/07/05 18:31:30;;;;;;;2.20;1.87;;;26.80;42.10;;;;;;4941602;29;20452;-80
2022/07/05 18:33:58;;;;;;;1.77;1.53;;;26.70;42.60;;;;;;4938780;28;20457;-80
2022/07/05 18:36:25;;;;;;;1.97;1.77;;;26.70;42.90;;;;;;4939914;29;20465;-82
2022/07/05 18:38:52;;;;;;;2.47;1.90;;;26.70;42.80;;;;;;4939702;29;20456;-81
2022/07/05 18:41:19;;;;;;;3.47;1.80;;;26.70;42.70;;;;;;4939944;29;20571;-80
2022/07/05 18:43:45;;;;;;;2.80;2.50;;;26.60;42.50;;;;;;4942138;28;20483;-80
2022/07/05 18:46:12;;;;;;;2.63;1.70;;;26.50;42.50;;;;;;4939365;29;20474;-81
2022/07/05 18:48:39;;;;;;;1.97;1.77;;;26.50;42.90;;;;;;4942747;29;20440;-80
2022/07/05 18:51:07;;;;;;;3.83;1.73;;;26.40;43.20;;;;;;4957198;29;20434;-79
2022/07/05 18:53:34;;;;;;;5.03;2.53;;;26.40;43.80;;;;;;4942750;29;20440;-81
2022/07/05 18:56:01;;;;;;;3.20;2.07;;;26.40;43.70;;;;;;4941378;29;20489;-80
2022/07/05 18:58:27;;;;;;;3.83;2.03;;;26.30;43.90;;;;;;4940065;29;20456;-81
2022/07/05 19:00:54;;;;;;;5.07;3.70;;;26.30;43.80;;;;;;4939984;29;20591;-80
2022/07/05 19:03:21;;;;;;;3.90;2.10;;;26.20;44.10;;;;;;4941158;29;20558;-81
2022/07/05 19:13:59;;;;;;;2.80;1.93;;;26.00;45.30;;;;;;4954258;29;20418;-81
2022/07/05 19:16:26;;;;;;;4.50;2.67;;;25.90;45.60;;;;;;4950133;29;20478;-81
2022/07/05 19:18:53;;;;;;;2.50;2.30;;;25.90;45.70;;;;;;4940872;28;20474;-81
2022/07/05 19:21:20;;;;;;;2.67;2.40;;;25.90;45.80;;;;;;4940854;29;20435;-80
2022/07/05 19:23:48;;;;;;;4.13;2.43;;;25.70;46.20;;;;;;4951301;29;20490;-79
2022/07/05 19:26:14;;;;;;;4.07;2.97;;;25.60;46.30;;;;;;4943887;29;20994;-80
2022/07/05 19:28:41;;;;;;;2.30;2.10;;;25.60;46.10;;;;;;4939217;29;20453;-80
2022/07/05 19:31:08;;;;;;;4.70;3.30;;;25.50;46.40;;;;;;4939678;29;20462;-80
2022/07/05 19:33:35;;;;;;;9.40;3.10;;;25.50;46.40;;;;;;4941444;29;20538;-79
2022/07/05 19:36:03;;;;;;;6.87;2.63;;;25.50;46.90;;;;;;4939749;29;20471;-81
2022/07/05 19:38:30;;;;;;;2.73;2.27;;;25.50;46.70;;;;;;4938873;29;20458;-81
2022/07/05 19:40:58;;;;;;;3.80;2.87;;;25.40;47.10;;;;;;4939170;28;20807;-79
2022/07/05 19:43:29;;;;;;;4.23;2.93;;;25.40;47.30;;;;;;4937903;29;20849;-80
2022/07/05 19:45:56;;;;;;;5.37;4.13;;;25.20;47.40;;;;;;4939004;28;20486;-80
2022/07/05 19:48:23;;;;;;;5.00;3.60;;;25.20;47.50;;;;;;4938437;29;20435;-79
2022/07/05 19:50:50;;;;;;;4.70;4.20;;;25.10;47.70;;;;;;4940243;28;20464;-79
2022/07/05 19:53:17;;;;;;;4.30;2.80;;;25.00;48.10;;;;;;4953820;29;20442;-82
2022/07/05 19:55:44;;;;;;;3.60;2.60;;;24.90;48.40;;;;;;4954950;29;20514;-80
2022/07/05 19:58:13;;;;;;;3.53;2.53;;;24.80;48.50;;;;;;4946476;29;20453;-81
2022/07/05 20:00:39;;;;;;;3.17;2.73;;;24.80;48.90;;;;;;4941228;29;20449;-87
2022/07/05 20:03:06;;;;;;;7.30;3.43;;;24.70;48.70;;;;;;4942583;29;20482;-88
2022/07/05 20:05:35;;;;;;;3.60;1.90;;;24.70;49.20;;;;;;4955418;29;20498;-89
2022/07/05 20:08:02;;;;;;;2.60;2.30;;;24.60;49.00;;;;;;4954738;28;20466;-88
2022/07/05 20:10:29;;;;;;;3.07;2.10;;;24.60;48.80;;;;;;4940586;29;20814;-89
2022/07/05 20:12:56;;;;;;;3.10;2.30;;;24.50;49.10;;;;;;4940040;28;20815;-89
2022/07/05 20:15:24;;;;;;;4.10;2.50;;;24.40;49.40;;;;;;4943498;28;20473;-89
2022/07/05 20:17:51;;;;;;;3.93;2.70;;;24.30;49.60;;;;;;4943134;29;20493;-89
2022/07/05 20:20:18;;;;;;;4.30;3.00;;;24.20;50.00;;;;;;4939869;29;20489;-89
2022/07/05 20:22:52;;;;;;;5.23;3.13;;;24.30;50.50;;;;;;4940156;29;20803;-89
2022/07/05 20:25:20;;;;;;;4.53;2.83;;;24.20;50.80;;;;;;4940045;29;20534;-89
2022/07/05 20:27:49;;;;;;;4.00;2.37;;;24.20;50.50;;;;;;4941720;29;20886;-88
2022/07/05 20:30:16;;;;;;;3.20;2.90;;;24.30;50.70;;;;;;4940731;29;20442;-88
2022/07/05 20:32:44;;;;;;;5.07;2.57;;;24.20;50.90;;;;;;4939014;29;20468;-90
2022/07/05 20:35:10;;;;;;;4.40;3.13;;;24.10;51.40;;;;;;4939440;29;20474;-90
2022/07/05 20:37:37;;;;;;;3.80;3.10;;;24.10;52.30;;;;;;4939150;29;20434;-89
2022/07/05 20:40:05;;;;;;;4.60;3.10;;;24.00;51.90;;;;;;4938949;29;20458;-89
2022/07/05 20:42:32;;;;;;;6.23;3.13;;;23.90;52.10;;;;;;4940172;28;20454;-88
2022/07/05 20:44:59;;;;;;;4.30;3.30;;;23.90;52.40;;;;;;4946278;28;20488;-89
2022/07/05 20:47:25;;;;;;;4.83;4.00;;;23.80;52.20;;;;;;4960454;29;20438;-91
2022/07/05 20:49:53;;;;;;;3.30;2.80;;;23.70;52.30;;;;;;4948297;29;20891;-89
2022/07/05 20:52:22;;;;;;;4.50;2.87;;;23.80;51.60;;;;;;4940811;28;20454;-88
2022/07/05 20:54:49;;;;;;;3.87;2.30;;;23.80;51.70;;;;;;4939897;28;20465;-89
2022/07/05 20:57:16;;;;;;;3.70;2.97;;;23.70;52.10;;;;;;4939313;29;20468;-88
2022/07/05 20:59:45;;;;;;;3.90;2.70;;;23.60;52.40;;;;;;4946895;29;20423;-88
2022/07/05 21:02:14;;;;;;;2.97;2.73;;;23.60;52.40;;;;;;4939179;28;20453;-89
2022/07/05 21:04:41;;;;;;;4.83;3.03;;;23.50;53.20;;;;;;4938037;29;20822;-88
2022/07/05 21:07:10;;;;;;;3.03;2.70;;;23.50;53.30;;;;;;4938833;29;20465;-88
2022/07/05 21:09:37;;;;;;;3.60;3.13;;;23.50;53.10;;;;;;4939673;28;20978;-79
2022/07/05 21:12:05;;;;;;;5.33;3.50;;;23.40;53.10;;;;;;4971133;23;20498;-85
2022/07/05 21:14:32;;;;;;;6.17;3.07;;;23.30;53.30;;;;;;4957315;29;20434;-85
2022/07/05 21:17:04;;;;;;;7.93;3.10;;;23.20;53.20;;;;;;4959567;29;20426;-85
2022/07/05 21:19:31;;;;;;;4.17;3.07;;;23.30;53.40;;;;;;4950608;29;20523;-85
2022/07/05 21:21:59;;;;;;;4.80;3.10;;;23.10;53.50;;;;;;4948492;29;20458;-85
2022/07/05 21:24:27;;;;;;;4.43;3.00;;;23.10;53.70;;;;;;4946120;29;20486;-85
2022/07/05 21:27:01;;;;;;;5.60;3.93;;;23.00;54.10;;;;;;4951638;29;20430;-85
2022/07/05 21:29:28;;;;;;;5.87;3.77;;;22.90;54.20;;;;;;4949506;29;20501;-85
2022/07/05 21:31:55;;;;;;;4.30;3.90;;;22.80;54.40;;;;;;4946136;29;20470;-85
2022/07/05 21:34:23;;;;;;;8.37;4.77;;;22.90;54.90;;;;;;4950147;29;20435;-85
2022/07/05 21:36:50;;;;;;;5.27;4.07;;;22.80;54.80;;;;;;4946632;29;20446;-85
2022/07/05 21:39:18;;;;;;;5.60;4.93;;;22.80;55.00;;;;;;4949237;29;20446;-85
2022/07/05 21:41:46;;;;;;;4.63;4.13;;;22.80;55.10;;;;;;4944482;29;21030;-86
2022/07/05 21:44:16;;;;;;;8.60;3.80;;;22.80;55.10;;;;;;4949206;29;21009;-86
2022/07/05 21:46:43;;;;;;;5.60;3.70;;;22.80;55.10;;;;;;4945754;29;20509;-86
2022/07/05 21:49:10;;;;;;;2.90;2.30;;;22.60;55.30;;;;;;4944940;29;20446;-86
2022/07/05 21:51:37;;;;;;;5.80;2.87;;;22.60;55.50;;;;;;4944006;29;20474;-86
2022/07/05 21:54:03;;;;;;;3.40;2.67;;;22.60;55.60;;;;;;4944067;29;20454;-86
2022/07/05 21:56:30;;;;;;;3.50;2.70;;;22.60;55.50;;;;;;4942988;29;20458;-86
2022/07/05 22:04:29;;;;;;;35.17;26.10;;;22.50;56.00;;;;;;4945264;29;21127;-86
2022/07/05 22:06:57;;;;;;;20.30;16.80;;;22.50;56.00;;;;;;4942429;29;20908;-84
2022/07/05 22:09:24;;;;;;;15.80;12.40;;;22.50;56.00;;;;;;4940228;29;20450;-86
2022/07/05 22:11:52;;;;;;;8.57;7.67;;;22.40;56.20;;;;;;4942328;29;20473;-85
2022/07/05 22:14:20;;;;;;;6.73;5.00;;;22.40;56.30;;;;;;4942413;29;20923;-85
2022/07/05 22:16:46;;;;;;;5.40;4.07;;;22.40;55.40;;;;;;4943930;29;20443;-85
2022/07/05 22:19:13;;;;;;;3.50;2.87;;;22.40;54.90;;;;;;4942549;29;20510;-85
2022/07/05 22:21:40;;;;;;;3.00;2.70;;;22.40;54.70;;;;;;4941878;29;20470;-86
2022/07/05 22:24:08;;;;;;;3.73;2.90;;;22.40;54.80;;;;;;4942817;29;20485;-85
2022/07/05 22:26:35;;;;;;;5.33;2.30;;;22.40;54.70;;;;;;4941525;29;20473;-86
2022/07/05 22:29:01;;;;;;;3.20;2.90;;;22.50;54.70;;;;;;4942706;29;20449;-85
2022/07/05 22:31:29;;;;;;;3.20;2.40;;;22.40;55.00;;;;;;4943377;29;20469;-86
2022/07/05 22:33:56;;;;;;;2.93;1.90;;;22.40;55.20;;;;;;4944335;29;20516;-85
2022/07/05 22:36:23;;;;;;;3.40;3.00;;;22.20;55.60;;;;;;4938769;29;20443;-85
2022/07/05 22:38:49;;;;;;;5.77;2.43;;;22.10;55.80;;;;;;4941634;29;20454;-85
2022/07/05 22:41:16;;;;;;;3.63;2.90;;;22.10;55.90;;;;;;4943082;29;20481;-84
2022/07/05 22:43:43;;;;;;;4.10;2.57;;;22.10;56.20;;;;;;4944574;29;20442;-84
2022/07/05 22:46:10;;;;;;;3.83;2.13;;;22.10;56.20;;;;;;4946868;29;20446;-84
2022/07/05 22:48:38;;;;;;;3.23;2.20;;;22.00;56.30;;;;;;4945289;29;20449;-85
2022/07/05 22:51:05;;;;;;;3.70;2.43;;;22.00;56.60;;;;;;4942717;29;20469;-85
2022/07/05 22:53:31;;;;;;;3.80;2.50;;;22.10;56.70;;;;;;4945497;29;20442;-85
2022/07/05 22:55:58;;;;;;;4.13;3.00;;;22.00;57.10;;;;;;4945159;29;20449;-84
2022/07/05 22:58:25;;;;;;;6.20;2.33;;;21.90;57.30;;;;;;4946152;29;20450;-85
2022/07/05 23:00:51;;;;;;;6.40;2.77;;;22.00;57.50;;;;;;4946697;29;20442;-85
2022/07/05 23:03:18;;;;;;;4.87;3.27;;;21.90;57.50;;;;;;4945010;29;20998;-85
2022/07/05 23:05:46;;;;;;;4.57;3.13;;;21.80;57.60;;;;;;4945592;29;20478;-85
2022/07/05 23:08:13;;;;;;;3.63;2.60;;;21.70;57.80;;;;;;4943968;29;20442;-84
2022/07/05 23:10:40;;;;;;;5.30;2.90;;;21.80;58.00;;;;;;4944213;29;20856;-85
2022/07/05 23:13:06;;;;;;;3.70;2.87;;;21.70;58.30;;;;;;4945847;29;20446;-85
2022/07/05 23:15:33;;;;;;;4.00;3.00;;;21.70;58.50;;;;;;4945668;29;20434;-85
2022/07/05 23:18:00;;;;;;;4.03;2.97;;;21.70;58.80;;;;;;4946279;29;20438;-84
2022/07/05 23:20:27;;;;;;;4.40;3.03;;;21.60;59.00;;;;;;4956731;29;20421;-83
2022/07/05 23:22:55;;;;;;;3.40;3.10;;;21.50;59.30;;;;;;4953419;29;20462;-85
2022/07/05 23:25:22;;;;;;;4.00;2.90;;;21.40;59.40;;;;;;4947250;29;20521;-84
2022/07/05 23:27:48;;;;;;;4.83;3.00;;;21.30;59.80;;;;;;4942689;29;20450;-85
2022/07/05 23:30:15;;;;;;;5.37;2.90;;;21.30;60.40;;;;;;4944314;29;20816;-84
2022/07/05 23:32:42;;;;;;;3.57;2.90;;;21.20;60.60;;;;;;4944565;29;20534;-85
2022/07/05 23:35:09;;;;;;;4.33;2.70;;;21.10;61.00;;;;;;4943672;29;20486;-84
2022/07/05 23:37:35;;;;;;;3.63;2.43;;;21.10;61.40;;;;;;4944391;29;20470;-85
2022/07/05 23:40:04;;;;;;;3.90;2.60;;;21.10;61.30;;;;;;4944339;29;20478;-84
2022/07/05 23:42:31;;;;;;;2.80;2.60;;;21.00;61.50;;;;;;4944576;29;20469;-85
2022/07/05 23:44:57;;;;;;;6.33;2.70;;;21.00;61.60;;;;;;4944708;29;20531;-85
2022/07/05 23:47:24;;;;;;;4.00;2.87;;;20.90;61.90;;;;;;4947086;29;20450;-85
2022/07/05 23:49:51;;;;;;;6.20;3.00;;;21.00;62.10;;;;;;4947534;29;20446;-85
2022/07/05 23:52:17;;;;;;;4.10;2.57;;;21.00;62.50;;;;;;4945009;29;20469;-85
2022/07/05 23:54:44;;;;;;;4.20;3.00;;;20.90;62.40;;;;;;4943959;29;20464;-85
2022/07/05 23:57:12;;;;;;;4.43;2.77;;;20.90;62.80;;;;;;4944129;29;20469;-85
2022/07/05 23:59:39;;;;;;;4.67;3.27;;;20.90;63.00;;;;;;4944651;29;20457;-85
